createdAt,value
2022-11-04T00:01:43.446Z,99861.22
2022-11-04T00:04:12.799Z,99854.97
2022-11-04T00:06:40.665Z,99846.31
2022-11-04T00:09:12.263Z,99847.44
2022-11-04T00:11:58.253Z,99848.94
2022-11-04T00:14:25.403Z,99843.16
2022-11-04T00:17:11.019Z,99844.75
2022-11-04T00:19:56.636Z,99840.81
2022-11-04T00:22:41.998Z,99838.50
2022-11-04T00:25:29.717Z,99831.56
2022-11-04T00:28:25.636Z,99832.13
2022-11-04T00:30:57.412Z,99827.41
2022-11-04T00:33:27.428Z,99807.28
2022-11-04T00:35:57.226Z,99803.44
2022-11-04T00:38:25.711Z,99812.69
2022-11-04T00:40:54.051Z,99819.03
2022-11-04T00:43:21.106Z,99819.84
2022-11-04T00:45:48.071Z,99821.22
2022-11-04T00:48:15.034Z,99843.06
2022-11-04T00:50:42.483Z,99849.81
2022-11-04T00:53:09.836Z,99853.50
2022-11-04T00:55:37.053Z,99851.41
2022-11-04T00:58:05.352Z,99850.28
2022-11-04T01:00:32.353Z,99847.03
2022-11-04T01:03:00.267Z,99845.78
2022-11-04T01:05:27.583Z,99850.28
2022-11-04T01:07:54.657Z,99858.97
2022-11-04T01:10:21.703Z,99863.84
2022-11-04T01:12:48.676Z,99864.41
2022-11-04T01:15:17.073Z,99857.00
2022-11-04T01:17:44.039Z,99864.97
2022-11-04T01:20:13.470Z,99857.13
2022-11-04T01:22:40.761Z,99860.34
2022-11-04T01:25:09.415Z,99843.34
2022-11-04T01:27:36.456Z,99814.69
2022-11-04T01:30:04.535Z,99810.41
2022-11-04T01:32:32.823Z,99832.22
2022-11-04T01:34:59.758Z,99826.75
2022-11-04T01:37:27.215Z,99828.25
2022-11-04T01:39:54.176Z,99824.00
2022-11-04T01:42:21.912Z,99828.03
2022-11-04T01:44:58.084Z,99830.91
2022-11-04T01:47:36.768Z,99838.31
2022-11-04T01:50:10.873Z,99834.63
2022-11-04T01:52:48.887Z,99830.00
2022-11-04T01:55:21.196Z,99812.69
2022-11-04T01:57:52.803Z,99808.72
2022-11-04T02:00:20.262Z,99818.94
2022-11-04T02:02:58.163Z,99831.75
2022-11-04T02:05:25.219Z,99821.22
2022-11-04T02:07:58.077Z,99809.19
2022-11-04T02:10:29.511Z,99807.19
2022-11-04T02:12:59.256Z,99801.78
2022-11-04T02:15:39.921Z,99822.50
2022-11-04T02:18:37.128Z,99825.97
2022-11-04T02:21:42.881Z,99830.94
2022-11-04T02:24:34.495Z,99823.22
2022-11-04T02:27:28.773Z,99812.25
2022-11-04T02:30:10.129Z,99827.00
2022-11-04T02:33:03.539Z,99830.94
2022-11-04T02:35:47.631Z,99838.44
2022-11-04T02:38:30.928Z,99845.34
2022-11-04T02:41:06.807Z,99850.09
2022-11-04T02:43:49.701Z,99849.06
2022-11-04T02:46:28.192Z,99852.44
2022-11-04T02:49:02.858Z,99861.44
2022-11-04T02:51:37.233Z,99866.75
2022-11-04T02:54:11.223Z,99883.94
2022-11-04T02:56:46.617Z,99898.75
2022-11-04T02:59:22.140Z,99892.50
2022-11-04T03:01:56.453Z,99898.16
2022-11-04T03:04:29.296Z,99891.44
2022-11-04T03:06:59.237Z,99903.31
2022-11-04T03:09:30.933Z,99901.59
2022-11-04T03:12:04.315Z,99900.31
2022-11-04T03:14:40.968Z,99911.50
2022-11-04T03:17:20.993Z,99905.97
2022-11-04T03:19:56.265Z,99906.47
2022-11-04T03:22:41.091Z,99920.44
2022-11-04T03:25:10.157Z,99932.13
2022-11-04T03:27:49.903Z,99927.72
2022-11-04T03:30:20.168Z,99927.91
2022-11-04T03:33:01.785Z,99913.59
2022-11-04T03:35:29.637Z,99914.28
2022-11-04T03:37:58.339Z,99918.31
2022-11-04T03:40:26.764Z,99931.16
2022-11-04T03:43:00.024Z,99928.50
2022-11-04T03:45:27.621Z,99929.19
2022-11-04T03:47:58.010Z,99940.63
2022-11-04T03:50:28.608Z,99949.00
2022-11-04T03:55:56.692Z,99948.78
2022-11-04T03:58:37.129Z,99963.09
2022-11-04T04:01:15.985Z,99975.34
2022-11-04T04:03:54.456Z,99977.75
2022-11-04T04:06:28.800Z,99976.94
2022-11-04T04:09:03.619Z,99978.56
2022-11-04T04:11:42.428Z,99998.00
2022-11-04T04:14:38.914Z,100000.38
2022-11-04T04:17:14.175Z,100001.97
2022-11-04T04:19:47.888Z,100003.84
2022-11-04T04:22:21.464Z,100010.44
2022-11-04T04:25:13.727Z,100006.25
2022-11-04T04:27:42.918Z,100016.44
2022-11-04T04:30:13.851Z,100014.34
2022-11-04T04:32:45.313Z,100022.91
2022-11-04T04:35:33.427Z,100026.25
2022-11-04T04:38:24.957Z,100030.28
2022-11-04T04:41:19.629Z,100015.53
2022-11-04T04:44:05.665Z,100017.16
2022-11-04T04:46:33.997Z,100026.56
2022-11-04T04:49:05.709Z,100023.91
2022-11-04T04:51:38.525Z,100021.91
2022-11-04T04:54:06.753Z,100033.09
2022-11-04T04:56:33.706Z,100036.78
2022-11-04T04:59:00.653Z,100028.94
2022-11-04T05:01:28.186Z,100025.59
2022-11-04T05:03:55.290Z,100028.59
2022-11-04T05:06:22.346Z,100027.44
2022-11-04T05:08:50.653Z,100029.63
2022-11-04T05:11:20.495Z,100026.66
2022-11-04T05:13:49.697Z,100029.06
2022-11-04T05:16:16.665Z,100035.88
2022-11-04T05:18:43.598Z,100038.84
2022-11-04T05:21:15.449Z,100048.06
2022-11-04T05:23:42.360Z,100056.16
2022-11-04T05:26:10.586Z,100050.84
2022-11-04T05:28:38.519Z,100058.38
2022-11-04T05:31:07.413Z,100066.78
2022-11-04T05:33:34.465Z,100064.47
2022-11-04T05:36:09.660Z,100063.78
2022-11-04T05:38:36.934Z,100056.84
2022-11-04T05:41:05.127Z,100061.75
2022-11-04T05:43:34.297Z,100064.16
2022-11-04T05:46:01.773Z,100083.00
2022-11-04T05:48:29.429Z,100075.03
2022-11-04T05:50:57.036Z,100084.16
2022-11-04T05:53:24.080Z,100097.44
2022-11-04T05:55:51.329Z,100104.47
2022-11-04T05:58:18.237Z,100107.75
2022-11-04T06:00:46.499Z,100114.66
2022-11-04T06:03:16.337Z,100126.00
2022-11-04T06:05:43.571Z,100131.44
2022-11-04T06:08:10.933Z,100124.63
2022-11-04T06:10:38.127Z,100134.47
2022-11-04T06:13:05.072Z,100133.75
2022-11-04T06:15:32.087Z,100149.91
2022-11-04T06:18:00.649Z,100150.72
2022-11-04T06:20:28.026Z,100151.88
2022-11-04T06:22:55.327Z,100164.13
2022-11-04T06:25:22.269Z,100160.78
2022-11-04T06:27:49.262Z,100166.91
2022-11-04T06:30:16.593Z,100168.06
2022-11-04T06:32:43.546Z,100169.22
2022-11-04T06:35:13.517Z,100175.69
2022-11-04T06:37:43.390Z,100172.13
2022-11-04T06:40:11.420Z,100171.75
2022-11-04T06:42:38.810Z,100180.53
2022-11-04T06:45:07.210Z,100174.28
2022-11-04T06:47:34.222Z,100167.50
2022-11-04T06:50:01.946Z,100170.59
2022-11-04T06:52:30.262Z,100180.31
2022-11-04T06:55:00.345Z,100182.50
2022-11-04T06:57:27.314Z,100198.56
2022-11-04T06:59:54.491Z,100215.19
2022-11-04T07:02:21.621Z,100232.31
2022-11-04T07:04:48.695Z,100235.09
2022-11-04T07:07:15.646Z,100236.84
2022-11-04T07:09:44.179Z,100247.25
2022-11-04T07:12:11.141Z,100255.00
2022-11-04T07:14:38.193Z,100259.88
2022-11-04T07:17:05.135Z,100269.59
2022-11-04T07:19:32.152Z,100256.91
2022-11-04T07:21:59.119Z,100256.41
2022-11-04T07:24:26.066Z,100269.13
2022-11-04T07:26:56.269Z,100281.59
2022-11-04T07:29:25.280Z,100276.00
2022-11-04T07:31:55.537Z,100278.53
2022-11-04T07:34:22.847Z,100287.97
2022-11-04T07:36:52.164Z,100298.63
2022-11-04T07:39:19.162Z,100296.53
2022-11-04T07:41:46.225Z,100293.41
2022-11-04T07:44:14.571Z,100303.34
2022-11-04T07:46:41.703Z,100302.69
2022-11-04T07:49:08.767Z,100301.75
2022-11-04T07:51:35.820Z,100309.63
2022-11-04T07:54:02.966Z,100312.56
2022-11-04T07:56:30.058Z,100317.38
2022-11-04T07:58:57.628Z,100321.38
2022-11-04T08:01:26.135Z,100323.34
2022-11-04T08:03:53.617Z,100328.28
2022-11-04T08:06:21.710Z,100326.53
2022-11-04T08:08:49.196Z,100317.66
2022-11-04T08:11:31.730Z,100317.81
2022-11-04T08:14:19.144Z,100319.63
2022-11-04T08:16:50.819Z,100313.84
2022-11-04T08:19:17.754Z,100317.53
2022-11-04T08:21:44.986Z,100308.75
2022-11-04T08:24:12.113Z,100322.78
2022-11-04T08:26:39.231Z,100318.41
2022-11-04T08:29:08.188Z,100320.75
2022-11-04T08:31:35.821Z,100321.78
2022-11-04T08:34:06.033Z,100319.25
2022-11-04T08:36:37.027Z,100325.75
2022-11-04T08:39:10.396Z,100334.78
2022-11-04T08:41:40.915Z,100343.88
2022-11-04T08:44:08.789Z,100349.06
2022-11-04T08:46:39.493Z,100363.47
2022-11-04T08:49:10.234Z,100361.84
2022-11-04T08:51:42.701Z,100365.81
2022-11-04T08:54:10.419Z,100373.56
2022-11-04T08:56:39.886Z,100373.13
2022-11-04T08:59:08.181Z,100366.75
2022-11-04T09:01:39.082Z,100369.63
2022-11-04T09:04:10.211Z,100375.72
2022-11-04T09:06:47.095Z,100370.34
2022-11-04T09:09:17.193Z,100369.13
2022-11-04T09:11:50.309Z,100376.53
2022-11-04T09:14:26.165Z,100379.41
2022-11-04T09:16:56.552Z,100384.88
2022-11-04T09:19:30.281Z,100388.22
2022-11-04T09:22:04.627Z,100400.06
2022-11-04T09:24:34.899Z,100399.59
2022-11-04T09:27:08.180Z,100405.38
2022-11-04T09:29:53.644Z,100403.50
2022-11-04T09:32:24.000Z,100405.13
2022-11-04T09:34:52.620Z,100406.75
2022-11-04T09:37:20.140Z,100416.13
2022-11-04T09:39:53.842Z,100414.41
2022-11-04T09:42:42.949Z,100415.09
2022-11-04T09:45:22.578Z,100420.44
2022-11-04T09:47:57.923Z,100412.31
2022-11-04T09:50:33.126Z,100411.97
2022-11-04T09:53:08.861Z,100426.31
2022-11-04T09:55:46.758Z,100417.19
2022-11-04T09:58:17.570Z,100419.63
2022-11-04T10:00:58.391Z,100412.94
2022-11-04T10:03:48.530Z,100420.56
2022-11-04T10:06:40.959Z,100421.84
2022-11-04T10:09:30.472Z,100420.22
2022-11-04T10:12:21.857Z,100433.00
2022-11-04T10:15:33.963Z,100444.66
2022-11-04T10:18:25.583Z,100434.34
2022-11-04T10:21:09.161Z,100432.47
2022-11-04T10:23:46.520Z,100438.25
2022-11-04T10:26:44.546Z,100442.53
2022-11-04T10:29:19.905Z,100435.28
2022-11-04T10:31:48.179Z,100434.56
2022-11-04T10:34:32.980Z,100435.66
2022-11-04T10:37:00.338Z,100439.19
2022-11-04T10:39:48.610Z,100431.34
2022-11-04T10:42:22.152Z,100436.44
2022-11-04T10:44:52.136Z,100442.94
2022-11-04T10:47:46.741Z,100439.41
2022-11-04T10:50:35.420Z,100447.88
2022-11-04T10:53:12.862Z,100444.22
2022-11-04T10:55:52.192Z,100449.78
2022-11-04T10:58:28.480Z,100458.44
2022-11-04T11:01:00.715Z,100460.97
2022-11-04T11:03:33.513Z,100462.25
2022-11-04T11:06:26.688Z,100467.72
2022-11-04T11:08:59.226Z,100472.94
2022-11-04T11:11:48.337Z,100475.94
2022-11-04T11:14:18.955Z,100477.34
2022-11-04T11:16:49.394Z,100480.09
2022-11-04T11:19:40.097Z,100478.13
2022-11-04T11:22:56.561Z,100473.13
2022-11-04T11:25:32.747Z,100487.19
2022-11-04T11:28:08.679Z,100479.53
2022-11-04T11:30:53.983Z,100488.41
2022-11-04T11:33:27.815Z,100492.44
2022-11-04T11:36:02.540Z,100493.75
2022-11-04T11:38:33.168Z,100497.50
2022-11-04T11:44:00.646Z,100504.88
2022-11-04T11:46:31.857Z,100506.41
2022-11-04T11:49:01.669Z,100511.66
2022-11-04T11:51:35.383Z,100511.81
2022-11-04T11:54:22.814Z,100524.75
2022-11-04T12:03:13.228Z,100539.53
2022-11-04T12:11:59.387Z,100529.72
2022-11-04T12:14:49.167Z,100540.00
2022-11-04T12:17:48.414Z,100539.44
2022-11-04T12:20:39.973Z,100547.97
2022-11-04T12:23:21.647Z,100543.25
2022-11-04T12:26:10.992Z,100545.78
2022-11-04T12:28:59.638Z,100544.16
2022-11-04T12:31:41.830Z,100539.28
2022-11-04T12:34:26.075Z,100540.56
2022-11-04T12:37:11.454Z,100540.72
2022-11-04T12:40:07.310Z,100541.63
2022-11-04T12:42:54.805Z,100542.00
2022-11-04T12:45:42.707Z,100537.94
2022-11-04T12:48:18.290Z,100531.56
2022-11-04T12:51:07.557Z,100532.25
2022-11-04T12:54:16.141Z,100524.47
2022-11-04T12:56:43.139Z,100525.31
2022-11-04T12:59:54.006Z,100524.41
2022-11-04T13:02:29.040Z,100537.16
2022-11-04T13:05:03.875Z,100536.13
2022-11-04T13:07:39.991Z,100528.47
2022-11-04T13:10:18.813Z,100536.69
2022-11-04T13:12:50.750Z,100543.66
2022-11-04T13:15:22.592Z,100543.66
2022-11-04T13:17:57.762Z,100551.41
2022-11-04T13:20:34.470Z,100555.59
2022-11-04T13:23:13.441Z,100561.75
2022-11-04T13:25:45.973Z,100571.97
2022-11-04T13:28:17.084Z,100581.38
2022-11-04T13:30:55.441Z,100576.59
2022-11-04T13:33:37.421Z,100587.72
2022-11-04T13:36:23.587Z,100584.34
2022-11-04T13:38:56.496Z,100588.91
2022-11-04T13:42:17.334Z,100578.78
2022-11-04T13:44:48.224Z,100584.25
2022-11-04T13:47:22.367Z,100588.97
2022-11-04T13:49:52.127Z,100590.25
2022-11-04T13:52:19.832Z,100592.84
2022-11-04T13:54:57.587Z,100596.66
2022-11-04T13:57:28.205Z,100596.09
2022-11-04T14:00:22.613Z,100590.63
2022-11-04T14:02:51.127Z,100593.06
2022-11-04T14:06:05.640Z,100596.75
2022-11-04T14:08:34.402Z,100593.63
2022-11-04T14:11:11.671Z,100611.72
2022-11-04T14:14:00.425Z,100609.63
2022-11-04T14:16:45.340Z,100608.25
2022-11-04T14:20:00.552Z,100608.94
2022-11-04T14:22:35.416Z,100617.06
2022-11-04T14:25:20.513Z,100623.56
2022-11-04T14:27:51.476Z,100625.31
2022-11-04T14:30:35.784Z,100622.06
2022-11-04T14:33:07.651Z,100634.47
2022-11-04T14:35:36.423Z,100645.50
2022-11-04T14:38:24.115Z,100646.28
2022-11-04T14:41:14.542Z,100650.59
2022-11-04T14:43:47.291Z,100656.03
2022-11-04T14:46:23.294Z,100661.59
2022-11-04T14:48:56.387Z,100670.41
2022-11-04T14:51:30.166Z,100679.13
2022-11-04T14:54:05.814Z,100678.53
2022-11-04T14:56:33.155Z,100675.63
2022-11-04T14:59:05.478Z,100666.84
2022-11-04T15:01:35.566Z,100668.69
2022-11-04T15:04:26.778Z,100674.22
2022-11-04T15:06:55.903Z,100676.56
2022-11-04T15:09:26.582Z,100688.25
2022-11-04T15:12:24.765Z,100697.91
2022-11-04T15:14:53.125Z,100701.97
2022-11-04T15:17:25.507Z,100704.97
2022-11-04T15:19:56.069Z,100712.53
2022-11-04T15:22:24.094Z,100712.28
2022-11-04T15:24:51.533Z,100725.63
2022-11-04T15:27:27.986Z,100731.44
2022-11-04T15:29:59.070Z,100733.16
2022-11-04T15:32:27.390Z,100736.28
2022-11-04T15:34:56.403Z,100729.41
2022-11-04T15:37:25.551Z,100721.31
2022-11-04T15:39:57.784Z,100726.03
2022-11-04T15:42:43.472Z,100725.09
2022-11-04T15:45:37.873Z,100731.44
2022-11-04T15:48:29.853Z,100729.88
2022-11-04T15:51:15.890Z,100727.06
2022-11-04T15:53:55.750Z,100738.19
2022-11-04T15:56:27.455Z,100740.25
2022-11-04T15:58:58.025Z,100744.41
2022-11-04T16:01:28.980Z,100747.50
2022-11-04T16:03:58.927Z,100745.91
2022-11-04T16:06:39.034Z,100750.66
2022-11-04T16:09:22.784Z,100757.66
2022-11-04T16:12:12.781Z,100753.25
2022-11-04T16:14:48.780Z,100757.19
2022-11-04T16:17:17.106Z,100767.59
2022-11-04T16:19:49.213Z,100769.44
2022-11-04T16:22:24.115Z,100770.50
2022-11-04T16:24:53.962Z,100772.56
2022-11-04T16:27:23.581Z,100766.03
2022-11-04T16:30:02.683Z,100765.88
2022-11-04T16:32:41.845Z,100770.63
2022-11-04T16:35:24.704Z,100773.88
2022-11-04T16:37:52.567Z,100774.94
2022-11-04T16:40:21.582Z,100781.28
2022-11-04T16:42:50.488Z,100783.94
2022-11-04T16:45:25.290Z,100797.94
2022-11-04T16:47:57.144Z,100800.22
2022-11-04T16:50:24.764Z,100805.19
2022-11-04T16:52:52.492Z,100805.59
2022-11-04T16:55:21.460Z,100806.50
2022-11-04T16:58:00.068Z,100824.59
2022-11-04T17:00:29.054Z,100823.41
2022-11-04T17:02:57.378Z,100822.22
2022-11-04T17:05:24.427Z,100824.13
2022-11-04T17:07:54.454Z,100828.22
2022-11-04T17:10:26.766Z,100826.41
2022-11-04T17:12:54.318Z,100828.91
2022-11-04T17:15:22.462Z,100828.75
2022-11-04T17:17:49.590Z,100828.56
2022-11-04T17:20:20.164Z,100825.78
2022-11-04T17:22:49.076Z,100827.00
2022-11-04T17:25:19.953Z,100826.63
2022-11-04T17:27:47.444Z,100827.03
2022-11-04T17:30:16.934Z,100837.09
2022-11-04T17:32:45.779Z,100839.38
2022-11-04T17:35:13.649Z,100835.28
2022-11-04T17:37:42.946Z,100840.63
2022-11-04T17:40:15.633Z,100846.94
2022-11-04T17:43:03.417Z,100846.34
2022-11-04T17:45:33.402Z,100851.28
2022-11-04T17:48:03.632Z,100859.88
2022-11-04T17:50:31.668Z,100855.81
2022-11-04T17:53:00.142Z,100856.25
2022-11-04T17:55:27.853Z,100859.56
2022-11-04T17:57:55.446Z,100858.31
2022-11-04T18:00:29.236Z,100850.78
2022-11-04T18:02:56.391Z,100853.88
2022-11-04T18:05:23.393Z,100856.34
2022-11-04T18:07:50.377Z,100859.63
2022-11-04T18:10:19.041Z,100866.59
2022-11-04T18:12:45.974Z,100869.06
2022-11-04T18:15:17.017Z,100874.81
2022-11-04T18:17:46.091Z,100869.47
2022-11-04T18:20:15.739Z,100881.78
2022-11-04T18:22:43.491Z,100875.66
2022-11-04T18:25:11.691Z,100887.53
2022-11-04T18:27:40.119Z,100887.09
2022-11-04T18:30:09.293Z,100894.25
2022-11-04T18:32:36.259Z,100886.50
2022-11-04T18:35:03.527Z,100889.16
2022-11-04T18:37:30.581Z,100885.91
2022-11-04T18:39:57.497Z,100894.28
2022-11-04T18:42:24.621Z,100894.06
2022-11-04T18:44:52.924Z,100903.50
2022-11-04T18:47:20.303Z,100897.16
2022-11-04T18:49:47.732Z,100906.34
2022-11-04T18:52:14.798Z,100904.13
2022-11-04T18:54:42.973Z,100913.09
2022-11-04T18:57:12.740Z,100906.34
2022-11-04T18:59:39.746Z,100916.59
2022-11-04T19:02:23.277Z,100918.22
2022-11-04T19:04:50.955Z,100921.09
2022-11-04T19:07:18.439Z,100919.44
2022-11-04T19:09:47.420Z,100918.59
2022-11-04T19:12:33.366Z,100914.13
2022-11-04T19:15:00.457Z,100923.09
2022-11-04T19:17:28.731Z,100928.41
2022-11-04T19:19:55.652Z,100937.41
2022-11-04T19:22:22.626Z,100933.31
2022-11-04T19:24:49.652Z,100939.84
2022-11-04T19:27:18.666Z,100941.91
2022-11-04T19:29:45.737Z,100940.84
2022-11-04T19:32:14.183Z,100943.50
2022-11-04T19:34:43.913Z,100950.47
2022-11-04T19:37:11.396Z,100948.41
2022-11-04T19:39:39.107Z,100951.69
2022-11-04T19:42:25.237Z,100949.25
2022-11-04T19:44:52.857Z,100955.78
2022-11-04T19:47:19.876Z,100962.31
2022-11-04T19:49:48.202Z,100965.97
2022-11-04T19:52:15.239Z,100964.75
2022-11-04T19:54:42.161Z,100963.97
2022-11-04T19:57:09.094Z,100966.81
2022-11-04T19:59:36.074Z,100963.94
2022-11-04T20:02:03.139Z,100971.69
2022-11-04T20:04:30.186Z,100981.09
2022-11-04T20:06:58.622Z,100983.34
2022-11-04T20:09:25.967Z,100984.75
2022-11-04T20:12:11.749Z,100989.66
2022-11-04T20:14:38.668Z,100994.97
2022-11-04T20:17:06.010Z,100989.22
2022-11-04T20:19:33.434Z,100992.06
2022-11-04T20:22:01.788Z,100994.94
2022-11-04T20:24:28.978Z,101000.63
2022-11-04T20:26:55.891Z,101007.16
2022-11-04T20:29:22.833Z,101010.84
2022-11-04T20:31:49.775Z,101011.44
2022-11-04T20:34:16.722Z,101012.06
2022-11-04T20:36:44.084Z,101019.03
2022-11-04T20:39:15.176Z,101033.28
2022-11-04T20:41:42.906Z,101026.38
2022-11-04T20:44:11.325Z,101030.22
2022-11-04T20:46:39.902Z,101023.66
2022-11-04T20:49:07.514Z,101033.22
2022-11-04T20:51:42.081Z,101040.97
2022-11-04T20:54:12.409Z,101043.00
2022-11-04T20:56:41.674Z,101048.31
2022-11-04T20:59:12.236Z,101060.13
2022-11-04T21:01:42.756Z,101057.03
2022-11-04T21:04:14.774Z,101061.72
2022-11-04T21:06:42.156Z,101065.78
2022-11-04T21:09:13.423Z,101064.53
2022-11-04T21:11:41.446Z,101067.38
2022-11-04T21:14:12.067Z,101067.38
2022-11-04T21:16:39.749Z,101073.50
2022-11-04T21:19:07.713Z,101082.47
2022-11-04T21:21:35.384Z,101081.03
2022-11-04T21:24:05.645Z,101078.97
2022-11-04T21:26:35.379Z,101077.91
2022-11-04T21:29:05.307Z,101085.81
2022-11-04T21:31:35.085Z,101091.69
2022-11-04T21:34:03.868Z,101093.31
2022-11-04T21:36:31.736Z,101093.69
2022-11-04T21:38:59.191Z,101099.56
2022-11-04T21:41:29.250Z,101108.72
2022-11-04T21:43:59.610Z,101108.28
2022-11-04T21:46:28.830Z,101109.47
2022-11-04T21:48:56.908Z,101121.28
2022-11-04T21:51:28.757Z,101116.38
2022-11-04T21:53:56.675Z,101120.84
2022-11-04T21:56:26.719Z,101120.41
2022-11-04T21:58:54.824Z,101117.75
2022-11-04T22:01:27.183Z,101116.31
2022-11-04T22:03:59.173Z,101117.50
2022-11-04T22:06:33.237Z,101131.78
2022-11-04T22:09:02.142Z,101125.66
2022-11-04T22:11:33.350Z,101135.25
2022-11-04T22:14:04.484Z,101133.22
2022-11-04T22:16:35.591Z,101132.19
2022-11-04T22:19:06.298Z,101132.19
2022-11-04T22:21:33.938Z,101131.19
2022-11-04T22:24:01.777Z,101129.00
2022-11-04T22:26:32.510Z,101124.94
2022-11-04T22:28:59.856Z,101131.06
2022-11-04T22:31:29.698Z,101138.00
2022-11-04T22:33:59.690Z,101137.16
2022-11-04T22:36:27.152Z,101136.38
2022-11-04T22:38:54.924Z,101135.56
2022-11-04T22:41:26.074Z,101141.03
2022-11-04T22:43:53.180Z,101135.09
2022-11-04T22:46:23.639Z,101142.03
2022-11-04T22:48:50.624Z,101134.72
2022-11-04T22:51:19.121Z,101143.28
2022-11-04T22:53:48.094Z,101144.94
2022-11-04T22:56:18.354Z,101154.53
2022-11-04T22:58:45.253Z,101155.56
2022-11-04T23:01:14.988Z,101156.75
2022-11-04T23:03:42.421Z,101158.38
2022-11-04T23:06:10.504Z,101166.16
2022-11-04T23:08:40.077Z,101160.22
2022-11-04T23:11:31.825Z,101158.31
2022-11-04T23:14:20.940Z,101162.53
2022-11-04T23:17:09.769Z,101158.84
2022-11-04T23:19:38.413Z,101165.53
2022-11-04T23:22:24.513Z,101166.91
2022-11-04T23:25:10.892Z,101169.13
2022-11-04T23:28:01.072Z,101175.59
2022-11-04T23:30:31.954Z,101177.13
2022-11-04T23:33:01.944Z,101170.06
2022-11-04T23:35:51.299Z,101171.84
2022-11-04T23:38:19.234Z,101178.00
2022-11-04T23:41:08.421Z,101181.59
2022-11-04T23:43:36.152Z,101190.94
2022-11-04T23:46:22.546Z,101185.03
2022-11-04T23:49:08.050Z,101186.56
2022-11-04T23:51:53.557Z,101189.59
2022-11-04T23:54:39.062Z,101185.88
2022-11-04T23:57:32.064Z,101192.91
